Latest Weather Observations for Tasman Island

IDT60801

Issued at 10:31 am EST Tuesday 23 May 2017 (issued every 30 minutes, with the page automatically refreshed every 10 minutes)

About weather observations | Map of weather stations | Latest weather observations for TAS | Other Formats
Station Details ID: 094155 Name: TASMAN ISLAND Lat: -43.24 Lon: 148.00 Height: 240.0 m
Data from the previous 72 hours. | See also: Recent months at Tasman Island
Date/Time
EST
Temp
°C
App
Temp
°C
Dew
Point
°C
Rel
Hum
%
Delta-T
°C
Wind Press
QNH
hPa
Press
MSL
hPa
Rain since
9am
mm
Dir  Spd
km/h
Gust
km/h
Spd
kts
Gust
kts
23/10:30am 15.5 7.4 8.5 63 3.6 NNW 41 56 22 30 1014.0 1014.2 0.0
23/10:03am 15.5 7.8 8.5 63 3.6 NNW 39 59 21 32 1013.9 1014.1 0.0
23/10:00am 15.3 6.9 8.8 65 3.4 NNW 43 59 23 32 1013.9 1014.1 0.0
23/09:39am 15.2 7.8 8.4 64 3.5 NNW 37 57 20 31 1014.0 1014.2 0.0
23/09:30am 15.0 8.0 8.5 65 3.3 NNW 35 50 19 27 1014.1 1014.3 0.0
23/09:26am 15.0 9.0 8.5 65 3.3 NNW 30 50 16 27 1014.1 1014.3 0.0
23/09:00am 14.1 7.5 8.7 70 2.8 N 33 46 18 25 1014.0 1014.2 0.0
23/08:30am 14.0 7.0 8.4 69 2.8 N 35 48 19 26 1014.0 1014.2 0.0
23/08:17am 13.6 7.1 9.1 74 2.3 N 33 52 18 28 1014.2 1014.4 0.0
23/08:00am 13.4 7.1 8.9 74 2.3 N 32 44 17 24 1014.2 1014.4 0.0
23/07:30am 13.5 5.7 8.4 71 2.6 N 39 56 21 30 1014.1 1014.3 0.0
23/07:00am 13.3 6.9 9.5 78 2.0 N 33 56 18 30 1014.0 1014.2 0.0
23/06:30am 13.5 7.1 9.2 75 2.2 N 33 54 18 29 1014.3 1014.5 0.0
23/06:00am 13.3 6.5 9.4 77 2.0 N 35 44 19 24 1014.3 1014.5 0.0
23/05:30am 13.2 6.7 10.2 82 1.6 N 35 46 19 25 1014.7 1014.8 0.0
23/05:00am 13.2 5.5 10.2 82 1.6 N 41 50 22 27 1014.7 1014.8 0.0
23/04:54am 13.5 7.1 9.4 76 2.1 NNE 33 48 18 26 1014.6 1014.7 0.0
23/04:30am 13.0 8.5 10.2 83 1.5 N 24 30 13 16 1015.0 1015.1 0.0
23/04:00am 13.0 7.8 10.4 84 1.4 N 28 37 15 20 1015.2 1015.3 0.0
23/03:30am 13.5 7.4 9.9 79 1.9 N 32 41 17 22 1015.2 1015.3 0.0
23/03:00am 13.2 8.4 10.4 83 1.5 N 26 33 14 18 1015.4 1015.5 0.0
23/02:30am 13.7 8.7 9.7 77 2.1 N 26 41 14 22 1015.5 1015.6 0.0
23/02:00am 13.3 9.7 9.9 80 1.8 N 19 28 10 15 1015.5 1015.6 0.0
23/01:32am 13.7 8.3 9.4 75 2.2 N 28 50 15 27 1015.7 1015.8 0.0
23/01:30am 13.8 8.8 9.5 75 2.2 N 26 50 14 27 1015.7 1015.8 0.0
23/01:00am 13.5 7.8 9.9 79 1.9 N 30 41 16 22 1015.9 1016.0 0.0
23/12:30am 13.8 8.4 9.6 76 2.2 N 28 41 15 22 1016.1 1016.2 0.0
23/12:00am 13.9 9.9 9.1 73 2.5 N 20 35 11 19 1016.3 1016.4 0.0
 
Date/Time
EST
Temp
°C
App
Temp
°C
Dew
Point
°C
Rel
Hum
%
Delta-T
°C
Wind Press
QNH
hPa
Press
MSL
hPa
Rain since
9am
mm
Dir  Spd
km/h
Gust
km/h
Spd
kts
Gust
kts
22/11:30pm 14.5 9.8 7.8 64 3.4 N 22 37 12 20 1016.6 1016.7 0.0
22/11:00pm 14.8 9.9 6.9 59 3.9 N 22 37 12 20 1017.0 1017.1 0.0
22/10:30pm 13.9 10.9 7.9 67 3.0 NNE 13 22 7 12 1017.0 1017.1 0.0
22/10:00pm 15.0 10.0 6.6 57 4.1 NNW 22 33 12 18 1017.0 1017.1 0.0
22/09:30pm 15.0 10.6 6.6 57 4.1 NNW 19 32 10 17 1017.2 1017.4 0.0
22/09:00pm 13.5 11.1 8.6 72 2.5 N 11 20 6 11 1017.1 1017.2 0.0
22/08:30pm 14.6 11.4 8.5 67 3.1 N 15 22 8 12 1017.2 1017.4 0.0
22/08:00pm 15.0 11.0 9.1 68 3.1 N 20 26 11 14 1017.3 1017.5 0.0
22/07:30pm 15.2 10.8 8.9 66 3.3 N 22 28 12 15 1017.2 1017.4 0.0
22/07:00pm 15.2 10.8 8.9 66 3.2 N 22 30 12 16 1017.3 1017.5 0.0
22/06:30pm 14.9 10.6 9.3 69 2.9 N 22 30 12 16 1017.1 1017.2 0.0
22/06:00pm 15.0 11.7 9.4 69 2.9 N 17 26 9 14 1017.0 1017.1 0.0
22/05:30pm 14.7 11.8 9.7 72 2.6 NNE 15 20 8 11 1016.8 1016.9 0.0
22/05:00pm 14.3 11.4 9.7 74 2.4 NNE 15 20 8 11 1016.9 1017.0 0.0
22/04:30pm 14.1 12.5 10.3 78 2.0 N 9 13 5 7 1016.9 1017.0 0.0
22/04:00pm 15.3 14.0 10.1 71 2.7 NNE 7 15 4 8 1016.9 1017.0 0.0
22/03:30pm 15.7 13.3 10.2 70 2.9 NNE 13 19 7 10 1016.9 1017.0 0.0
22/03:00pm 17.3 14.8 9.7 61 4.0 NW 13 22 7 12 1016.9 1017.0 0.0
22/02:30pm 17.4 13.5 9.6 60 4.1 NW 20 26 11 14 1016.8 1016.9 0.0
22/02:00pm 17.6 14.0 9.8 60 4.2 WNW 19 26 10 14 1016.9 1017.0 0.0
22/01:30pm 16.0 10.4 8.7 62 3.8 WNW 28 32 15 17 1016.8 1016.9 0.0
22/01:00pm 16.4 12.4 8.9 61 3.9 WNW 20 32 11 17 1017.0 1017.1 0.0
22/12:30pm 15.8 11.7 8.8 63 3.6 WNW 20 30 11 16 1017.1 1017.2 0.0
22/12:00pm 16.6 12.9 9.3 62 3.8 WNW 19 26 10 14 1017.3 1017.5 0.0
22/11:30am 16.1 11.7 8.8 62 3.8 WNW 22 30 12 16 1017.7 1017.9 0.0
22/11:00am 15.6 11.5 8.6 63 3.6 WNW 20 32 11 17 1018.1 1018.3 0.0
22/10:30am 15.3 11.3 8.3 63 3.6 WNW 19 32 10 17 1018.3 1018.5 0.0
22/10:00am 15.4 11.6 8.9 65 3.4 WNW 19 32 10 17 1018.3 1018.5 0.0
22/09:30am 14.8 10.3 8.5 66 3.2 WNW 22 32 12 17 1018.3 1018.5 0.0
22/09:00am 14.7 11.1 8.2 65 3.3 WNW 17 33 9 18 1018.6 1018.8 3.6
22/08:30am 14.3 10.6 8.0 66 3.2 WNW 17 30 9 16 1018.6 1018.8 3.6
22/08:00am 14.0 9.8 8.2 68 2.9 WNW 20 32 11 17 1018.3 1018.5 3.6
22/07:30am 13.5 8.9 8.1 70 2.7 WNW 22 33 12 18 1017.9 1018.1 3.6
22/07:00am 13.5 8.5 8.1 70 2.7 WNW 24 35 13 19 1017.6 1017.8 3.6
22/06:30am 13.4 9.3 8.5 72 2.5 WNW 20 35 11 19 1017.4 1017.6 3.6
22/06:00am 13.1 8.6 8.6 74 2.3 NW 22 30 12 16 1017.3 1017.5 3.6
22/05:30am 13.2 9.1 8.5 73 2.4 WNW 20 32 11 17 1017.2 1017.4 3.6
22/05:00am 13.1 10.3 8.4 73 2.4 WNW 13 28 7 15 1017.0 1017.1 3.6
22/04:30am 13.5 9.5 8.4 71 2.6 WNW 19 32 10 17 1016.9 1017.0 3.6
22/04:00am 13.1 9.2 8.6 74 2.3 WNW 19 35 10 19 1016.8 1016.9 3.6
22/03:30am 12.8 8.7 8.7 76 2.1 WNW 20 35 11 19 1016.5 1016.6 3.6
22/03:00am 12.8 10.0 8.7 76 2.1 WNW 13 32 7 17 1016.7 1016.8 3.6
22/02:30am 12.1 9.8 8.9 81 1.6 WNW 11 24 6 13 1016.7 1016.8 3.6
22/02:00am 12.3 9.3 9.1 81 1.6 WNW 15 24 8 13 1016.7 1016.8 3.6
22/01:30am 12.2 10.4 9.4 83 1.4 WNW 9 22 5 12 1016.8 1016.9 3.6
22/01:00am 12.1 10.3 9.5 84 1.3 WNW 9 20 5 11 1016.9 1017.0 3.6
22/12:30am 11.7 9.9 9.6 87 1.1 WNW 9 24 5 13 1016.9 1017.0 3.6
22/12:00am 11.5 9.8 9.9 90 0.8 WNW 9 19 5 10 1017.1 1017.2 3.6
 
Date/Time
EST
Temp
°C
App
Temp
°C
Dew
Point
°C
Rel
Hum
%
Delta-T
°C
Wind Press
QNH
hPa
Press
MSL
hPa
Rain since
9am
mm
Dir  Spd
km/h
Gust
km/h
Spd
kts
Gust
kts
21/11:30pm 11.2 9.2 10.3 94 0.5 W 11 17 6 9 1017.0 1017.1 3.6
21/11:00pm 11.4 9.6 10.8 96 0.3 W 11 17 6 9 1017.1 1017.2 3.6
21/10:30pm 11.2 9.8 10.9 98 0.2 WNW 9 13 5 7 1017.1 1017.2 3.6
21/10:00pm 11.3 10.9 11.0 98 0.2 NW 4 9 2 5 1017.2 1017.4 3.6
21/09:30pm 11.8 11.2 11.6 99 0.1 WNW 6 15 3 8 1017.1 1017.2 3.6
21/09:00pm 11.6 11.3 11.4 99 0.1 WNW 4 15 2 8 1017.0 1017.1 3.6
21/08:30pm 11.9 11.3 11.7 99 0.1 SSW 6 15 3 8 1016.7 1016.8 3.6
21/08:00pm 11.9 11.3 11.7 99 0.1 ENE 6 15 3 8 1016.5 1016.6 3.6
21/07:30pm 12.2 11.7 12.0 99 0.1 SSE 6 13 3 7 1016.4 1016.5 3.6
21/07:00pm 12.1 10.2 11.9 99 0.1 WSW 13 26 7 14 1015.9 1016.0 3.6
21/06:30pm 12.2 10.7 12.0 99 0.1 WSW 11 30 6 16 1015.7 1015.8 3.6
21/06:00pm 12.3 10.5 12.1 99 0.1 WSW 13 24 7 13 1015.6 1015.7 3.6
21/05:30pm 12.3 10.5 12.1 99 0.1 WSW 13 24 7 13 1015.3 1015.4 3.6
21/05:00pm 12.4 10.2 12.2 99 0.1 WSW 15 28 8 15 1015.2 1015.3 3.6
21/04:30pm 12.5 10.0 12.3 99 0.1 SW 17 26 9 14 1015.1 1015.2 3.6
21/04:00pm 12.6 10.9 12.4 99 0.1 SW 13 26 7 14 1015.0 1015.1 3.6
21/03:30pm 12.6 10.1 12.4 99 0.1 SW 17 26 9 14 1014.9 1015.0 3.6
21/03:00pm 12.6 9.6 12.4 99 0.1 SW 20 32 11 17 1014.7 1014.8 3.6
21/02:30pm 12.6 10.1 12.4 99 0.1 SSW 17 28 9 15 1014.7 1014.8 3.6
21/02:00pm 12.5 9.0 12.3 99 0.1 SW 22 37 12 20 1014.8 1014.9 3.6
21/01:30pm 12.2 8.6 11.9 98 0.2 SW 22 35 12 19 1014.7 1014.8 3.6
21/01:00pm 12.0 7.6 11.7 98 0.2 SW 26 39 14 21 1014.7 1014.8 3.6
21/12:30pm 11.8 9.8 11.5 98 0.2 SW 13 24 7 13 1014.9 1015.0 3.6
21/12:00pm 12.0 10.4 11.7 98 0.2 SW 11 20 6 11 1015.4 1015.5 3.6
21/11:30am 12.0 10.1 11.7 98 0.2 WSW 13 20 7 11 1015.9 1016.0 3.6
21/11:00am 12.2 10.3 11.9 98 0.2 WSW 13 20 7 11 1016.5 1016.6 3.6
21/10:30am 12.7 11.0 12.4 98 0.2 W 13 17 7 9 1016.8 1016.9 3.6
21/10:00am 12.7 12.3 12.4 98 0.2 WSW 6 9 3 5 1017.1 1017.2 3.0
21/09:30am 12.6 12.2 12.3 98 0.2 ESE 6 6 3 3 1017.2 1017.4 2.0
21/09:00am 12.5 11.4 12.0 97 0.3 SSE 9 11 5 6 1017.2 1017.4 -
21/08:30am 12.6 12.1 12.1 97 0.3 SW 6 7 3 4 1017.5 1017.7 -
21/08:00am 12.5 12.4 12.0 97 0.3 SW 4 6 2 3 1017.4 1017.6 -
21/07:30am 12.6 11.9 12.1 97 0.3 WSW 7 11 4 6 1017.3 1017.5 -
21/07:00am 12.8 11.0 12.2 96 0.3 N 13 24 7 13 1017.4 1017.6 8.0
21/06:30am 12.9 8.7 12.3 96 0.3 NNE 26 37 14 20 1017.1 1017.2 6.4
21/06:00am 12.6 7.6 12.1 97 0.3 NNE 30 35 16 19 1017.1 1017.2 6.4
21/05:30am 12.6 7.2 12.3 98 0.2 N 32 39 17 21 1017.0 1017.1 6.4
21/05:00am 12.7 7.1 12.2 97 0.3 NNE 33 46 18 25 1016.9 1017.0 5.8
21/04:30am 12.7 6.4 12.2 97 0.3 N 37 50 20 27 1016.9 1017.0 5.2
21/04:00am 13.0 7.5 12.4 96 0.3 N 33 59 18 32 1016.9 1017.0 5.0
21/03:55am 12.9 7.4 12.4 97 0.3 N 33 59 18 32 1017.0 1017.1 5.0
21/03:30am 12.7 6.0 12.2 97 0.3 N 39 48 21 26 1017.0 1017.1 5.0
21/03:00am 12.8 6.6 12.5 98 0.2 N 37 46 20 25 1017.3 1017.5 4.4
21/02:30am 12.9 5.9 12.6 98 0.2 N 41 54 22 29 1017.5 1017.7 4.0
21/02:00am 12.9 4.6 12.6 98 0.2 NNE 48 61 26 33 1017.5 1017.7 3.8
21/01:30am 12.8 3.3 12.5 98 0.2 NNE 54 72 29 39 1017.5 1017.7 3.4
21/01:20am 13.5 7.5 13.2 98 0.2 NNE 37 61 20 33 1017.3 1017.5 2.6
21/01:00am 13.3 7.5 12.8 97 0.3 NE 35 61 19 33 1017.3 1017.5 1.6
21/12:30am 13.3 5.8 12.8 97 0.3 NE 44 72 24 39 1017.4 1017.6 1.2
21/12:18am 13.4 9.0 12.9 97 0.3 NNE 28 69 15 37 1017.2 1017.4 1.2
21/12:00am 13.3 10.4 12.8 97 0.3 NNE 20 57 11 31 1017.4 1017.6 0.4
 
Date/Time
EST
Temp
°C
App
Temp
°C
Dew
Point
°C
Rel
Hum
%
Delta-T
°C
Wind Press
QNH
hPa
Press
MSL
hPa
Rain since
9am
mm
Dir  Spd
km/h
Gust
km/h
Spd
kts
Gust
kts
20/11:50pm 13.2 8.7 12.6 96 0.3 NNE 28 69 15 37 1017.5 1017.7 0.4
20/11:30pm 13.3 9.9 12.5 95 0.4 NNE 22 54 12 29 1017.7 1017.9 0.4
20/11:19pm 13.3 8.7 12.4 94 0.5 NNE 28 61 15 33 1017.7 1017.9 0.4
20/11:00pm 13.2 9.4 12.3 94 0.5 NNE 24 70 13 38 1017.8 1018.0 0.2
20/10:30pm 13.8 11.5 11.8 88 1.1 NE 15 48 8 26 1018.1 1018.3 0.2
20/10:00pm 13.7 10.4 11.6 87 1.1 NNE 20 52 11 28 1018.5 1018.7 0.2
20/09:30pm 13.6 10.3 11.7 88 1.0 NNE 20 44 11 24 1019.0 1019.1 0.2
20/09:00pm 13.4 10.3 11.5 88 1.0 NE 19 57 10 31 1019.1 1019.2 0.2
20/08:30pm 13.5 10.3 11.2 86 1.2 NE 19 52 10 28 1019.2 1019.3 0.2
20/08:00pm 13.4 11.0 11.3 87 1.1 NE 15 67 8 36 1019.3 1019.4 0.2
20/07:30pm 13.3 10.5 11.4 88 1.0 NNE 17 54 9 29 1019.6 1019.7 0.2
20/07:00pm 13.2 10.0 11.3 88 1.0 NE 19 44 10 24 1019.5 1019.6 0.2
20/06:30pm 13.1 10.5 10.8 86 1.2 NE 15 43 8 23 1019.6 1019.7 0.2
20/06:00pm 13.1 9.5 10.6 85 1.3 NNE 20 57 11 31 1019.7 1019.8 0.2
20/05:30pm 13.2 9.7 10.2 82 1.6 NNE 19 56 10 30 1020.0 1020.1 0.2
20/05:00pm 13.1 10.1 10.6 85 1.3 NNE 17 52 9 28 1019.9 1020.0 0.2
20/04:30pm 13.0 9.6 10.4 84 1.4 NNE 19 57 10 31 1020.3 1020.4 0.2
20/04:00pm 13.0 8.8 9.8 81 1.7 NNE 22 54 12 29 1020.7 1020.9 0.2
20/03:30pm 12.9 8.7 9.7 81 1.7 NNE 22 61 12 33 1020.9 1021.1 0.2
20/03:00pm 12.8 10.2 9.4 80 1.7 NNE 13 50 7 27 1021.0 1021.2 0.2
20/02:30pm 12.7 8.9 9.0 78 1.9 NE 19 52 10 28 1021.1 1021.3 0.2
20/02:00pm 12.7 8.9 9.2 79 1.8 NE 19 57 10 31 1021.3 1021.5 0.2
20/01:30pm 12.7 8.8 9.5 81 1.6 NE 20 52 11 28 1021.7 1021.9 0.2
20/01:00pm 12.5 6.0 9.1 80 1.7 NE 33 65 18 35 1022.4 1022.6 0.2
20/12:54pm 12.7 7.2 9.0 78 1.9 NNE 28 65 15 35 1022.3 1022.5 0.2
20/12:30pm 12.6 9.7 9.8 83 1.4 NNE 15 44 8 24 1022.4 1022.6 0.2
20/12:00pm 12.2 8.3 9.6 84 1.3 NE 20 57 11 31 1023.0 1023.2 0.2
20/11:44am 11.9 6.5 9.6 86 1.2 NNE 28 59 15 32 1023.4 1023.5 0.0
20/11:30am 12.9 8.9 9.0 77 2.0 NNE 20 57 11 31 1023.4 1023.5 0.0
20/11:00am 12.6 9.7 9.6 82 1.5 N 15 44 8 24 1023.9 1024.0 0.0

Other Formats:

Comma delimited format used in spreadsheet applications
http://www.bom.gov.au/fwo/IDT60801/IDT60801.95986.axf

JavaScript Object Notation format (JSON) in row-major order
http://www.bom.gov.au/fwo/IDT60801/IDT60801.95986.json